Time;durP1;ratioP1;P1;durP2;ratioP2;P2;SDS_P1;SDS_P2;PMS_P1;PMS_P2;Temp;Humidity;BMP_temperature;BMP_pressure;BME280_temperature;BME280_humidity;BME280_pressure;Samples;Min_cycle;Max_cycle;Signal;HPM_P1;HPM_P2
2023/07/21 00:01:12;;;;;;;3.53;1.30;;;15.50;58.00;;;;;;4983210;28;20581;-66
2023/07/21 00:03:40;;;;;;;3.33;1.20;;;15.50;57.60;;;;;;4986235;28;20625;-68
2023/07/21 00:06:07;;;;;;;4.00;1.37;;;15.60;57.50;;;;;;4981981;28;20186;-67
2023/07/21 00:08:38;;;;;;;2.30;1.20;;;15.60;57.00;;;;;;4986713;28;20190;-67
2023/07/21 00:11:05;;;;;;;3.83;1.20;;;15.70;56.90;;;;;;4985208;28;20186;-66
2023/07/21 00:13:36;;;;;;;2.03;1.10;;;15.70;56.30;;;;;;4986129;28;20723;-69
2023/07/21 00:16:04;;;;;;;3.57;1.40;;;15.80;55.40;;;;;;4986584;28;20629;-67
2023/07/21 00:18:33;;;;;;;2.60;1.10;;;15.80;55.00;;;;;;4981687;28;20297;-67
2023/07/21 00:21:01;;;;;;;4.07;1.20;;;15.90;54.90;;;;;;4986019;28;20178;-66
2023/07/21 00:23:31;;;;;;;4.17;1.20;;;16.00;54.30;;;;;;4986298;28;20203;-68
2023/07/21 00:26:00;;;;;;;3.87;1.43;;;16.00;54.40;;;;;;4985439;28;20227;-68
2023/07/21 00:28:28;;;;;;;3.40;1.00;;;16.10;54.20;;;;;;4987678;28;20190;-67
2023/07/21 00:30:55;;;;;;;4.63;1.37;;;16.20;54.20;;;;;;4988213;28;20249;-67
2023/07/21 00:33:25;;;;;;;2.60;1.00;;;16.00;53.60;;;;;;4962700;28;20204;-68
2023/07/21 00:35:52;;;;;;;4.93;1.07;;;16.10;53.80;;;;;;4985152;28;20197;-67
2023/07/21 00:38:21;;;;;;;3.43;0.80;;;16.20;53.80;;;;;;4989174;28;20192;-66
2023/07/21 00:40:48;;;;;;;2.10;0.97;;;16.30;53.60;;;;;;4986968;28;20248;-69
2023/07/21 00:43:18;;;;;;;1.73;1.03;;;16.30;53.20;;;;;;4983577;28;20271;-71
2023/07/21 00:45:46;;;;;;;3.20;1.00;;;16.30;52.30;;;;;;4982414;28;20195;-65
2023/07/21 00:48:18;;;;;;;5.20;1.20;;;16.50;52.30;;;;;;4984227;28;20195;-72
2023/07/21 00:50:49;;;;;;;1.80;1.10;;;16.60;52.20;;;;;;4968685;28;20224;-70
2023/07/21 00:53:16;;;;;;;3.03;1.40;;;16.80;51.90;;;;;;4987194;28;20192;-66
2023/07/21 00:55:47;;;;;;;3.83;1.40;;;17.00;51.10;;;;;;4980590;28;20194;-70
2023/07/21 00:58:19;;;;;;;1.90;1.00;;;17.20;50.50;;;;;;4981016;28;20262;-68
2023/07/21 01:00:47;;;;;;;4.43;1.00;;;17.30;50.50;;;;;;4981381;28;20748;-71
2023/07/21 01:03:18;;;;;;;2.67;1.10;;;17.30;50.10;;;;;;4987397;28;20644;-66
2023/07/21 01:05:53;;;;;;;4.10;1.00;;;17.50;50.10;;;;;;4985415;28;20181;-68
2023/07/21 01:08:21;;;;;;;2.57;1.03;;;17.80;49.40;;;;;;4986469;28;20659;-73
2023/07/21 01:10:50;;;;;;;1.83;0.80;;;17.70;49.10;;;;;;4983861;28;20191;-75
2023/07/21 01:13:19;;;;;;;4.23;1.30;;;17.10;49.30;;;;;;4983377;28;20197;-69
2023/07/21 01:15:55;;;;;;;1.80;0.97;;;17.20;49.30;;;;;;4978091;28;20180;-71
2023/07/21 01:18:23;;;;;;;2.50;0.97;;;17.20;49.60;;;;;;4983742;28;20286;-70
2023/07/21 01:20:51;;;;;;;2.20;1.47;;;17.30;50.10;;;;;;4981275;28;20186;-65
2023/07/21 01:23:35;;;;;;;6.77;1.00;;;17.20;49.90;;;;;;4983027;28;20243;-68
2023/07/21 01:26:02;;;;;;;1.80;0.93;;;17.20;49.20;;;;;;4986043;28;20185;-70
2023/07/21 01:28:30;;;;;;;2.20;0.90;;;17.10;49.00;;;;;;4982121;28;20185;-68
2023/07/21 01:30:58;;;;;;;5.17;0.90;;;17.10;49.30;;;;;;4988395;28;20229;-69
2023/07/21 01:33:27;;;;;;;2.37;1.10;;;17.10;49.10;;;;;;4986861;28;20216;-64
2023/07/21 01:35:55;;;;;;;2.93;1.07;;;17.20;49.00;;;;;;4982678;28;20176;-67
2023/07/21 01:38:24;;;;;;;3.17;0.80;;;17.30;48.30;;;;;;4982642;28;20518;-71
2023/07/21 01:40:53;;;;;;;1.60;0.90;;;17.80;46.20;;;;;;4988729;28;20590;-66
2023/07/21 01:43:23;;;;;;;3.87;1.00;;;17.70;47.30;;;;;;4983574;28;20182;-67
2023/07/21 01:45:57;;;;;;;1.37;0.77;;;18.20;46.10;;;;;;4987102;28;20190;-66
2023/07/21 01:48:24;;;;;;;5.40;1.00;;;18.10;44.80;;;;;;4987880;28;20667;-69
2023/07/21 01:50:55;;;;;;;3.90;0.87;;;18.30;44.70;;;;;;4980569;28;20182;-65
2023/07/21 01:53:25;;;;;;;1.67;0.80;;;18.30;45.20;;;;;;4987979;28;20181;-66
2023/07/21 01:56:06;;;;;;;3.00;0.73;;;18.50;44.00;;;;;;4985342;28;20178;-70
2023/07/21 01:58:37;;;;;;;2.47;0.77;;;18.50;43.80;;;;;;4991839;28;20305;-65
2023/07/21 02:01:06;;;;;;;1.80;0.90;;;18.40;43.30;;;;;;4992417;28;20195;-65
2023/07/21 02:03:34;;;;;;;3.57;0.80;;;18.60;44.10;;;;;;4989819;28;20336;-66
2023/07/21 02:06:01;;;;;;;2.93;0.70;;;18.80;43.10;;;;;;4992181;28;20656;-67
2023/07/21 02:08:28;;;;;;;1.33;0.80;;;18.80;43.10;;;;;;4984142;28;20577;-66
2023/07/21 02:10:55;;;;;;;4.10;1.23;;;18.80;43.60;;;;;;4985832;28;20249;-67
2023/07/21 02:13:25;;;;;;;1.40;0.80;;;18.90;45.00;;;;;;4988258;28;20183;-68
2023/07/21 02:15:53;;;;;;;3.10;0.60;;;19.00;44.90;;;;;;4985500;28;20183;-66
2023/07/21 02:18:20;;;;;;;3.20;0.73;;;19.10;43.90;;;;;;4986601;28;20201;-65
2023/07/21 02:20:47;;;;;;;3.97;0.70;;;19.10;42.60;;;;;;4984869;28;20282;-66
2023/07/21 02:23:15;;;;;;;1.27;0.73;;;19.20;41.70;;;;;;4986686;28;20194;-69
2023/07/21 02:25:44;;;;;;;1.73;0.90;;;19.10;40.80;;;;;;4981091;28;20524;-69
2023/07/21 02:28:11;;;;;;;1.40;0.90;;;19.30;40.60;;;;;;4984173;28;20281;-65
2023/07/21 02:30:39;;;;;;;1.93;0.87;;;19.30;40.70;;;;;;4986333;28;20230;-65
2023/07/21 02:33:06;;;;;;;3.03;1.07;;;19.30;40.60;;;;;;4985431;28;20183;-67
2023/07/21 02:35:34;;;;;;;1.10;0.83;;;19.00;41.50;;;;;;4978489;28;20281;-66
2023/07/21 02:38:03;;;;;;;3.03;0.90;;;19.30;41.30;;;;;;4988363;28;20576;-68
2023/07/21 02:40:33;;;;;;;1.67;0.70;;;19.30;39.70;;;;;;4978484;28;20313;-65
2023/07/21 02:43:01;;;;;;;0.93;0.70;;;19.30;39.90;;;;;;4981204;28;20181;-66
2023/07/21 02:45:28;;;;;;;2.10;0.70;;;19.30;39.70;;;;;;4988951;28;20186;-67
2023/07/21 02:47:55;;;;;;;2.77;0.70;;;19.60;39.40;;;;;;4989800;28;20174;-66
2023/07/21 02:50:23;;;;;;;3.93;0.83;;;19.30;39.30;;;;;;4982205;28;20602;-67
2023/07/21 02:52:50;;;;;;;1.57;0.77;;;19.60;38.70;;;;;;4992097;28;20209;-67
2023/07/21 02:55:19;;;;;;;4.90;0.63;;;19.80;35.00;;;;;;4983563;28;20186;-69
2023/07/21 02:57:46;;;;;;;4.30;0.60;;;19.90;33.80;;;;;;4986665;28;20225;-71
2023/07/21 03:00:14;;;;;;;0.77;0.60;;;19.90;33.80;;;;;;4990418;28;20265;-67
2023/07/21 03:02:42;;;;;;;0.80;0.60;;;19.30;33.90;;;;;;4987850;28;20615;-68
2023/07/21 03:05:10;;;;;;;1.63;0.70;;;19.50;35.00;;;;;;4990642;28;20200;-71
2023/07/21 03:07:39;;;;;;;0.93;0.60;;;19.20;34.70;;;;;;4987519;28;20175;-70
2023/07/21 03:10:11;;;;;;;0.70;0.70;;;18.80;36.30;;;;;;4981479;28;20274;-68
2023/07/21 03:12:38;;;;;;;1.17;0.60;;;18.50;36.20;;;;;;4979489;28;20183;-74
2023/07/21 03:15:06;;;;;;;0.90;0.50;;;18.30;37.20;;;;;;4984726;28;20629;-67
2023/07/21 03:17:34;;;;;;;2.70;0.80;;;18.30;37.70;;;;;;4989201;28;20225;-69
2023/07/21 03:20:04;;;;;;;1.73;0.80;;;18.30;37.60;;;;;;4988576;28;20228;-66
2023/07/21 03:22:32;;;;;;;1.47;0.60;;;18.50;36.90;;;;;;4983403;28;20219;-70
2023/07/21 03:24:59;;;;;;;2.67;0.70;;;19.20;35.60;;;;;;4982915;28;20178;-68
2023/07/21 03:27:27;;;;;;;1.23;0.73;;;19.90;34.50;;;;;;4978573;28;20186;-66
2023/07/21 03:29:55;;;;;;;4.23;0.70;;;20.20;33.70;;;;;;4985195;28;20280;-64
2023/07/21 03:32:22;;;;;;;2.27;0.80;;;19.80;33.40;;;;;;4990582;28;20216;-64
2023/07/21 03:34:51;;;;;;;0.93;0.50;;;19.30;34.90;;;;;;4983819;28;20206;-64
2023/07/21 03:37:18;;;;;;;1.13;0.70;;;18.80;36.00;;;;;;4979654;28;20206;-68
2023/07/21 03:39:45;;;;;;;1.10;0.70;;;18.70;36.90;;;;;;4984426;28;20194;-65
2023/07/21 03:42:14;;;;;;;0.60;0.60;;;18.80;37.00;;;;;;4990088;28;20190;-65
2023/07/21 03:44:41;;;;;;;3.33;0.70;;;19.40;35.90;;;;;;4985550;28;20186;-66
2023/07/21 03:47:08;;;;;;;2.30;0.80;;;20.00;35.10;;;;;;4981212;28;20178;-66
2023/07/21 03:49:36;;;;;;;1.80;0.70;;;20.10;34.90;;;;;;4981192;28;20556;-65
2023/07/21 03:52:03;;;;;;;2.20;0.60;;;20.30;34.60;;;;;;4989834;28;20184;-65
2023/07/21 03:54:30;;;;;;;1.73;0.80;;;20.70;34.10;;;;;;4983287;28;20586;-67
2023/07/21 03:56:58;;;;;;;1.20;0.87;;;20.20;34.00;;;;;;4985842;28;20213;-65
2023/07/21 03:59:25;;;;;;;1.93;0.90;;;20.60;34.70;;;;;;4982234;28;20193;-65
2023/07/21 04:01:52;;;;;;;4.43;0.70;;;20.80;34.30;;;;;;4981649;28;20190;-67
2023/07/21 04:04:20;;;;;;;1.00;0.60;;;21.30;34.00;;;;;;4983479;28;20194;-67
2023/07/21 04:06:47;;;;;;;2.77;0.70;;;21.50;33.30;;;;;;4989892;28;20241;-70
2023/07/21 04:09:15;;;;;;;1.17;0.60;;;21.30;32.00;;;;;;4986483;28;20661;-68
2023/07/21 04:11:43;;;;;;;1.90;0.57;;;20.70;33.40;;;;;;4969461;28;20589;-66
2023/07/21 04:14:10;;;;;;;1.47;0.80;;;20.70;32.90;;;;;;4977509;28;20218;-64
2023/07/21 04:16:37;;;;;;;2.00;0.70;;;20.80;32.80;;;;;;4982846;28;20240;-68
2023/07/21 04:19:05;;;;;;;1.30;0.70;;;21.20;32.50;;;;;;4985317;28;20229;-72
2023/07/21 04:21:32;;;;;;;4.67;0.80;;;21.30;29.70;;;;;;4983275;28;20194;-65
2023/07/21 04:23:59;;;;;;;2.23;0.70;;;21.80;30.70;;;;;;4988182;28;20674;-66
2023/07/21 04:26:27;;;;;;;2.47;0.70;;;21.70;27.40;;;;;;4987912;28;20209;-67
2023/07/21 04:28:54;;;;;;;2.47;0.80;;;21.40;31.70;;;;;;4988226;28;20276;-65
2023/07/21 04:31:22;;;;;;;6.03;0.90;;;21.60;41.50;;;;;;4987268;28;20241;-66
2023/07/21 04:33:49;;;;;;;1.33;0.70;;;22.30;41.60;;;;;;4988000;28;20231;-67
2023/07/21 04:36:17;;;;;;;2.77;1.13;;;22.60;41.60;;;;;;4981920;28;20187;-64
2023/07/21 04:38:44;;;;;;;3.87;0.93;;;22.90;41.40;;;;;;4981947;28;20615;-66
2023/07/21 04:41:13;;;;;;;4.00;0.90;;;22.70;41.70;;;;;;4983565;28;20193;-65
2023/07/21 04:43:41;;;;;;;1.90;0.80;;;22.10;42.40;;;;;;4978577;28;20289;-67
2023/07/21 04:46:09;;;;;;;6.13;1.37;;;20.90;45.10;;;;;;4984758;28;20666;-65
2023/07/21 04:48:37;;;;;;;2.93;0.80;;;20.20;47.20;;;;;;4979604;28;20189;-67
2023/07/21 04:51:04;;;;;;;2.77;0.90;;;19.60;49.00;;;;;;4984435;28;20260;-66
2023/07/21 04:53:31;;;;;;;5.80;1.10;;;18.90;51.30;;;;;;4982272;28;20696;-66
2023/07/21 04:55:59;;;;;;;2.97;1.07;;;18.50;52.90;;;;;;4985733;28;20541;-68
2023/07/21 04:58:26;;;;;;;2.77;0.90;;;18.30;53.80;;;;;;4978006;28;20205;-69
2023/07/21 05:00:54;;;;;;;5.23;1.13;;;17.90;55.30;;;;;;4987819;28;20186;-66
2023/07/21 05:03:21;;;;;;;4.20;1.27;;;17.90;55.80;;;;;;4980082;28;20189;-67
2023/07/21 05:05:49;;;;;;;5.03;1.00;;;17.80;56.10;;;;;;4984904;28;20671;-70
2023/07/21 05:08:17;;;;;;;6.17;1.20;;;17.80;56.10;;;;;;4979608;28;20174;-66
2023/07/21 05:10:44;;;;;;;8.57;1.10;;;17.80;56.20;;;;;;4986130;28;20619;-67
2023/07/21 05:13:11;;;;;;;6.27;1.20;;;17.80;56.40;;;;;;4986298;28;20187;-69
2023/07/21 05:15:38;;;;;;;3.97;1.57;;;17.80;56.60;;;;;;4985602;28;20190;-65
2023/07/21 05:18:09;;;;;;;7.07;1.40;;;17.70;57.10;;;;;;4986992;28;20548;-65
2023/07/21 05:20:40;;;;;;;10.43;1.17;;;17.60;57.00;;;;;;4983904;28;20182;-67
2023/07/21 05:23:09;;;;;;;3.93;1.00;;;17.50;57.30;;;;;;4986164;28;20614;-65
2023/07/21 05:25:36;;;;;;;4.57;0.90;;;17.40;57.90;;;;;;4981786;28;20190;-65
2023/07/21 05:28:03;;;;;;;4.40;1.27;;;17.20;58.20;;;;;;4985497;28;20182;-66
2023/07/21 05:30:31;;;;;;;5.80;1.23;;;17.30;58.30;;;;;;4979807;28;20654;-66
2023/07/21 05:32:58;;;;;;;5.50;0.90;;;17.30;57.30;;;;;;4980319;28;20186;-67
2023/07/21 05:35:27;;;;;;;6.10;1.10;;;17.20;56.60;;;;;;4987156;28;20186;-65
2023/07/21 05:37:54;;;;;;;8.27;1.10;;;17.00;56.70;;;;;;4978988;28;20276;-67
2023/07/21 05:40:21;;;;;;;4.70;0.90;;;17.00;57.00;;;;;;4983721;28;20209;-67
2023/07/21 05:42:49;;;;;;;1.83;0.80;;;17.00;57.90;;;;;;4979638;28;20546;-65
2023/07/21 05:45:16;;;;;;;10.27;1.17;;;16.80;58.70;;;;;;4983130;28;20179;-68
2023/07/21 05:47:44;;;;;;;5.43;1.17;;;16.90;58.80;;;;;;4981083;28;20328;-65
2023/07/21 05:50:11;;;;;;;8.63;1.30;;;16.90;59.20;;;;;;4980895;28;20177;-66
2023/07/21 05:52:38;;;;;;;41.83;2.30;;;16.90;59.50;;;;;;4981300;28;20276;-65
2023/07/21 05:55:06;;;;;;;8.63;1.23;;;17.00;59.50;;;;;;4983898;28;20186;-66
2023/07/21 05:57:34;;;;;;;9.53;1.53;;;16.90;59.30;;;;;;4979788;28;20669;-66
2023/07/21 06:00:01;;;;;;;9.50;1.10;;;17.00;59.40;;;;;;4985284;28;20546;-66
2023/07/21 06:02:28;;;;;;;15.33;1.30;;;17.20;58.80;;;;;;4979461;28;20197;-66
2023/07/21 06:04:57;;;;;;;3.87;0.90;;;17.60;56.60;;;;;;4984476;28;20294;-67
2023/07/21 06:07:24;;;;;;;3.60;1.00;;;17.30;57.30;;;;;;4981550;28;20237;-66
2023/07/21 06:09:52;;;;;;;5.00;1.40;;;17.10;57.20;;;;;;4988409;28;20534;-65
2023/07/21 06:12:19;;;;;;;2.90;1.57;;;16.90;58.00;;;;;;4986710;28;20228;-65
2023/07/21 06:14:46;;;;;;;4.77;2.13;;;16.90;57.80;;;;;;4979872;28;20179;-66
2023/07/21 06:17:14;;;;;;;7.67;1.60;;;16.80;58.30;;;;;;4989612;28;20256;-67
2023/07/21 06:19:41;;;;;;;6.77;1.80;;;16.70;58.50;;;;;;4989324;28;20190;-66
2023/07/21 06:22:08;;;;;;;6.50;1.33;;;16.70;58.30;;;;;;4989470;28;20545;-65
2023/07/21 06:24:36;;;;;;;4.30;1.20;;;16.60;58.30;;;;;;4981948;28;20548;-66
2023/07/21 06:27:03;;;;;;;5.03;1.47;;;16.80;58.10;;;;;;4989334;28;20177;-66
2023/07/21 06:29:30;;;;;;;4.13;1.00;;;16.60;58.30;;;;;;4989070;28;20186;-66
2023/07/21 06:31:58;;;;;;;3.60;1.10;;;16.50;58.60;;;;;;4983843;28;20316;-65
2023/07/21 06:34:25;;;;;;;8.33;1.30;;;16.40;58.60;;;;;;4982983;28;20549;-66
2023/07/21 06:36:53;;;;;;;4.33;1.10;;;16.40;58.80;;;;;;4969338;28;20214;-65
2023/07/21 06:39:22;;;;;;;4.50;1.30;;;16.30;58.60;;;;;;4988016;28;20219;-65
2023/07/21 06:41:51;;;;;;;6.37;1.30;;;16.30;58.50;;;;;;4984561;28;20189;-68
2023/07/21 06:44:20;;;;;;;3.43;1.47;;;16.20;58.80;;;;;;4989053;28;20184;-66
2023/07/21 06:46:49;;;;;;;79.30;4.40;;;16.20;58.90;;;;;;4989118;28;20221;-66
2023/07/21 06:49:16;;;;;;;32.37;2.57;;;16.10;58.60;;;;;;4978967;28;20272;-66
2023/07/21 06:51:44;;;;;;;43.10;2.83;;;16.10;58.80;;;;;;4984630;28;20570;-73
2023/07/21 06:54:11;;;;;;;21.30;2.03;;;16.00;58.80;;;;;;4986863;28;20180;-69
2023/07/21 06:56:38;;;;;;;5.90;1.87;;;15.90;59.10;;;;;;4982075;28;20269;-69
2023/07/21 06:59:06;;;;;;;9.97;2.03;;;15.90;58.90;;;;;;4984617;28;20188;-66
2023/07/21 07:01:33;;;;;;;3.73;1.90;;;15.90;58.70;;;;;;4985147;28;20185;-73
2023/07/21 07:04:00;;;;;;;2.37;1.23;;;15.90;58.70;;;;;;4984773;28;20636;-67
2023/07/21 07:06:28;;;;;;;4.47;1.50;;;15.80;59.00;;;;;;4988945;28;20188;-66
2023/07/21 07:08:56;;;;;;;5.50;2.10;;;15.80;59.20;;;;;;4985080;28;20189;-68
2023/07/21 07:11:24;;;;;;;7.10;1.50;;;15.70;59.70;;;;;;4981458;28;20192;-66
2023/07/21 07:13:52;;;;;;;3.83;1.30;;;15.70;60.20;;;;;;4989946;28;20174;-66
2023/07/21 07:16:19;;;;;;;7.70;1.80;;;15.70;60.90;;;;;;4987828;28;20201;-65
2023/07/21 07:18:46;;;;;;;3.30;1.33;;;15.60;61.30;;;;;;4986723;28;20185;-65
2023/07/21 07:21:14;;;;;;;3.27;1.20;;;15.50;61.60;;;;;;4985451;28;20202;-65
2023/07/21 07:23:41;;;;;;;4.13;1.67;;;15.40;62.10;;;;;;4988580;28;20182;-65
2023/07/21 07:26:08;;;;;;;6.10;2.40;;;15.30;62.80;;;;;;4987469;28;20195;-65
2023/07/21 07:28:38;;;;;;;5.90;1.83;;;15.30;63.20;;;;;;4983875;28;20201;-65
2023/07/21 07:31:06;;;;;;;3.93;1.50;;;15.20;63.70;;;;;;4985284;28;20324;-65
2023/07/21 07:33:34;;;;;;;8.30;1.60;;;15.10;64.20;;;;;;4986015;28;20190;-65
2023/07/21 07:36:01;;;;;;;4.77;1.23;;;15.00;64.20;;;;;;4987446;28;20217;-65
2023/07/21 07:38:30;;;;;;;4.80;1.40;;;15.10;64.50;;;;;;4982090;28;20222;-66
2023/07/21 07:41:17;;;;;;;5.30;1.60;;;14.90;64.90;;;;;;4984102;28;20194;-69
2023/07/21 07:43:45;;;;;;;4.33;1.90;;;14.80;65.00;;;;;;4981414;28;20611;-66
2023/07/21 07:46:13;;;;;;;3.37;2.00;;;14.80;65.00;;;;;;4985985;28;20273;-66
2023/07/21 07:48:40;;;;;;;4.17;1.80;;;14.80;65.00;;;;;;4982832;28;20273;-66
2023/07/21 07:51:08;;;;;;;5.33;2.43;;;14.80;65.10;;;;;;4986252;28;20177;-71
2023/07/21 07:53:36;;;;;;;2.93;1.47;;;14.80;65.10;;;;;;4988139;28;20198;-66
2023/07/21 07:56:04;;;;;;;5.33;1.60;;;14.80;65.00;;;;;;4991592;28;20178;-67
2023/07/21 07:58:32;;;;;;;4.23;1.50;;;14.70;64.90;;;;;;4984005;28;20229;-69
2023/07/21 08:01:00;;;;;;;3.03;1.37;;;14.70;64.90;;;;;;4989825;28;20182;-68
2023/07/21 08:03:27;;;;;;;4.10;1.53;;;14.70;64.80;;;;;;4984087;28;20547;-67
2023/07/21 08:05:55;;;;;;;7.13;2.00;;;14.50;64.90;;;;;;4986873;28;20174;-67
2023/07/21 08:08:22;;;;;;;5.03;1.80;;;14.50;65.10;;;;;;4984028;28;20190;-66
2023/07/21 08:10:50;;;;;;;5.10;1.63;;;14.50;65.00;;;;;;4990600;28;20649;-66
2023/07/21 08:13:17;;;;;;;10.90;2.03;;;14.50;65.00;;;;;;4983709;28;20182;-68
2023/07/21 08:15:46;;;;;;;5.73;1.73;;;14.40;65.20;;;;;;4987532;28;20197;-66
2023/07/21 08:18:13;;;;;;;3.90;1.50;;;14.40;65.30;;;;;;4982981;28;20226;-69
2023/07/21 08:20:42;;;;;;;6.93;1.60;;;14.50;65.20;;;;;;4983525;28;20232;-73
2023/07/21 08:23:09;;;;;;;5.10;2.10;;;14.50;65.10;;;;;;4982563;28;20196;-72
2023/07/21 08:25:37;;;;;;;5.87;2.10;;;14.50;65.10;;;;;;4979825;28;20201;-67
2023/07/21 08:28:04;;;;;;;5.37;1.60;;;14.60;65.00;;;;;;4986187;28;20175;-70
2023/07/21 08:30:32;;;;;;;5.63;2.07;;;14.60;64.60;;;;;;4981847;28;20800;-66
2023/07/21 08:32:59;;;;;;;3.30;1.67;;;14.60;64.60;;;;;;4989301;28;20643;-68
2023/07/21 08:35:27;;;;;;;5.83;2.37;;;14.50;64.30;;;;;;4981545;28;20242;-66
2023/07/21 08:37:56;;;;;;;6.47;2.10;;;14.50;64.00;;;;;;4988297;28;20221;-66
2023/07/21 08:40:23;;;;;;;8.50;2.63;;;14.50;64.30;;;;;;4984552;28;20257;-67
2023/07/21 08:42:51;;;;;;;3.90;3.00;;;14.40;63.80;;;;;;4987064;28;20189;-65
2023/07/21 08:45:20;;;;;;;7.03;2.17;;;14.40;63.70;;;;;;4984678;28;20638;-65
2023/07/21 08:47:48;;;;;;;6.40;2.60;;;14.40;63.60;;;;;;4986438;28;20193;-68
2023/07/21 08:50:19;;;;;;;9.17;3.50;;;14.30;63.30;;;;;;4982266;28;20210;-66
2023/07/21 08:52:47;;;;;;;13.27;3.23;;;14.30;62.90;;;;;;4981774;28;20181;-65
2023/07/21 08:55:14;;;;;;;9.77;3.27;;;14.30;62.80;;;;;;4983765;28;20278;-66
2023/07/21 08:57:42;;;;;;;7.93;2.40;;;14.30;62.90;;;;;;4981848;28;20287;-65
2023/07/21 09:00:10;;;;;;;9.30;2.50;;;14.30;63.00;;;;;;4980724;28;20186;-66
2023/07/21 09:02:45;;;;;;;7.00;2.50;;;14.30;63.80;;;;;;4980757;28;20189;-66
2023/07/21 09:05:18;;;;;;;9.33;2.77;;;14.30;64.10;;;;;;4985247;28;20175;-68
2023/07/21 09:07:47;;;;;;;7.77;2.30;;;14.30;64.20;;;;;;4981916;28;20741;-65
2023/07/21 09:10:31;;;;;;;5.70;2.20;;;14.30;64.70;;;;;;4986170;28;20193;-65
2023/07/21 09:13:04;;;;;;;8.50;2.73;;;14.30;65.00;;;;;;4983804;28;20166;-66
2023/07/21 09:15:32;;;;;;;19.10;4.67;;;14.20;65.20;;;;;;4984207;28;20275;-67
2023/07/21 09:18:01;;;;;;;9.20;3.70;;;14.30;65.20;;;;;;4980736;28;20220;-65
2023/07/21 09:20:31;;;;;;;7.67;3.67;;;14.30;65.50;;;;;;4979833;28;20189;-67
2023/07/21 09:22:58;;;;;;;7.47;3.00;;;14.20;65.60;;;;;;4979943;28;20206;-65
2023/07/21 09:25:25;;;;;;;9.53;2.70;;;14.20;65.40;;;;;;4987392;28;20187;-65
2023/07/21 09:27:54;;;;;;;13.13;4.00;;;14.20;65.60;;;;;;4983723;28;20652;-66
2023/07/21 09:30:22;;;;;;;11.13;3.80;;;14.20;65.80;;;;;;4982246;28;20218;-65
2023/07/21 09:32:55;;;;;;;8.20;3.70;;;14.20;67.40;;;;;;4988942;28;20186;-73
2023/07/21 09:35:23;;;;;;;11.73;3.27;;;14.10;68.30;;;;;;4979847;28;20187;-68
2023/07/21 09:37:51;;;;;;;14.67;3.83;;;14.10;69.10;;;;;;4985803;28;20635;-68
2023/07/21 09:40:30;;;;;;;12.23;4.23;;;14.00;69.50;;;;;;4984647;28;20209;-73
2023/07/21 09:42:59;;;;;;;12.23;4.70;;;14.00;69.90;;;;;;4982765;28;20185;-72
2023/07/21 09:45:27;;;;;;;12.03;5.17;;;13.90;70.50;;;;;;4986412;28;20189;-66
2023/07/21 09:47:56;;;;;;;11.80;4.13;;;13.80;71.00;;;;;;4981906;28;20270;-65
2023/07/21 09:50:23;;;;;;;20.00;4.30;;;13.80;71.20;;;;;;4984829;28;20179;-65
2023/07/21 09:52:54;;;;;;;10.90;3.90;;;13.80;71.40;;;;;;4988696;28;20197;-65
2023/07/21 09:55:23;;;;;;;10.20;3.67;;;13.70;71.50;;;;;;4984250;28;20663;-65
2023/07/21 09:57:50;;;;;;;10.13;3.10;;;13.70;71.90;;;;;;4982097;28;20214;-66
2023/07/21 10:00:20;;;;;;;10.83;3.17;;;13.60;72.10;;;;;;4984231;28;20182;-66
2023/07/21 10:02:50;;;;;;;6.37;3.33;;;13.60;72.60;;;;;;4989140;28;20193;-65
2023/07/21 10:05:18;;;;;;;9.20;3.23;;;13.50;73.20;;;;;;4984926;28;20178;-65
2023/07/21 10:07:50;;;;;;;10.93;2.67;;;13.60;73.30;;;;;;4982515;28;20229;-65
2023/07/21 10:10:18;;;;;;;6.53;2.70;;;13.60;73.10;;;;;;4985903;28;20225;-65
2023/07/21 10:12:52;;;;;;;4.90;2.47;;;13.50;72.90;;;;;;4985116;28;20184;-64
2023/07/21 10:15:30;;;;;;;10.57;3.57;;;13.40;73.10;;;;;;4988239;28;20193;-65
2023/07/21 10:18:06;;;;;;;8.53;3.00;;;13.40;72.90;;;;;;4989249;28;20257;-65
2023/07/21 10:20:41;;;;;;;8.03;2.97;;;13.30;72.20;;;;;;4981829;28;20186;-64
2023/07/21 10:23:10;;;;;;;10.43;3.00;;;13.40;71.40;;;;;;4983556;28;20214;-64
2023/07/21 10:25:48;;;;;;;7.93;3.00;;;13.50;70.70;;;;;;4984931;28;20186;-64
2023/07/21 10:28:15;;;;;;;7.00;3.10;;;13.50;70.40;;;;;;4981326;28;20182;-63
2023/07/21 10:30:43;;;;;;;5.30;3.10;;;13.40;70.70;;;;;;4985351;28;20240;-66
2023/07/21 10:33:20;;;;;;;7.17;3.40;;;13.30;70.50;;;;;;4988200;28;20182;-66
2023/07/21 10:35:48;;;;;;;10.90;3.37;;;13.30;70.40;;;;;;4985514;28;20916;-65
2023/07/21 10:38:15;;;;;;;7.33;3.77;;;13.30;70.60;;;;;;4987128;28;20269;-64
2023/07/21 10:40:44;;;;;;;11.37;3.63;;;13.20;71.10;;;;;;4985922;28;20233;-65
2023/07/21 10:43:12;;;;;;;7.93;3.87;;;13.20;71.40;;;;;;4991117;28;20190;-65
2023/07/21 10:45:40;;;;;;;8.60;3.50;;;13.20;71.30;;;;;;4986449;28;20182;-64
2023/07/21 10:48:16;;;;;;;7.53;3.97;;;13.10;71.20;;;;;;4991080;28;20190;-65
2023/07/21 10:50:58;;;;;;;8.53;4.03;;;13.10;71.20;;;;;;4985442;28;20197;-66
2023/07/21 10:53:26;;;;;;;9.50;4.93;;;13.00;70.80;;;;;;4991797;28;20174;-66
2023/07/21 10:55:54;;;;;;;13.43;4.60;;;13.00;71.00;;;;;;4988529;28;20186;-65
2023/07/21 10:58:22;;;;;;;12.07;4.33;;;13.00;71.20;;;;;;4980226;28;20218;-67
2023/07/21 11:00:51;;;;;;;8.30;4.70;;;13.00;71.10;;;;;;4987815;28;20236;-64
2023/07/21 11:03:19;;;;;;;11.37;5.80;;;13.00;71.50;;;;;;4983405;28;20557;-64
2023/07/21 11:05:47;;;;;;;7.30;4.67;;;13.00;71.50;;;;;;4986024;28;20189;-65
2023/07/21 11:08:26;;;;;;;10.73;4.63;;;13.00;71.10;;;;;;4981436;28;20194;-65
2023/07/21 11:10:54;;;;;;;8.77;4.80;;;13.10;71.30;;;;;;4986887;28;20178;-64
2023/07/21 11:13:25;;;;;;;7.90;3.93;;;13.10;71.20;;;;;;4988708;28;20178;-65
2023/07/21 11:15:56;;;;;;;9.47;3.77;;;13.00;70.70;;;;;;4982696;28;20254;-65
2023/07/21 11:18:24;;;;;;;12.87;4.23;;;13.10;70.60;;;;;;4989620;28;20679;-65
2023/07/21 11:20:52;;;;;;;11.20;4.17;;;13.20;70.30;;;;;;4982151;28;20182;-65
2023/07/21 11:23:24;;;;;;;9.10;4.37;;;13.20;70.20;;;;;;4988190;28;20186;-71
2023/07/21 11:26:20;;;;;;;7.37;3.63;;;13.20;70.60;;;;;;4996971;28;20647;-65
2023/07/21 11:28:49;;;;;;;8.37;3.57;;;13.30;70.00;;;;;;4969581;28;20179;-65
2023/07/21 11:31:18;;;;;;;10.57;4.03;;;13.30;69.80;;;;;;4989540;28;20234;-65
2023/07/21 11:33:49;;;;;;;9.43;3.77;;;13.30;69.50;;;;;;4988034;28;20290;-66
2023/07/21 11:36:24;;;;;;;10.97;3.40;;;13.30;69.40;;;;;;4985398;28;20186;-68
2023/07/21 11:39:11;;;;;;;6.90;3.07;;;13.30;69.70;;;;;;4986556;28;20237;-73
2023/07/21 11:41:41;;;;;;;5.60;3.53;;;13.20;70.00;;;;;;4986289;28;20194;-70
2023/07/21 11:44:15;;;;;;;10.80;3.00;;;13.30;70.20;;;;;;4988986;28;20262;-64
2023/07/21 11:46:42;;;;;;;8.57;3.70;;;13.20;69.70;;;;;;4982951;28;20644;-67
2023/07/21 11:49:14;;;;;;;8.57;3.07;;;13.20;70.20;;;;;;4984897;28;20850;-72
2023/07/21 11:51:45;;;;;;;4.67;3.00;;;13.20;69.60;;;;;;4985003;28;20190;-68
2023/07/21 11:54:25;;;;;;;9.40;3.20;;;13.20;70.00;;;;;;4988914;28;20235;-66
2023/07/21 11:56:54;;;;;;;9.27;2.70;;;13.20;69.30;;;;;;4987847;28;20201;-65
2023/07/21 11:59:23;;;;;;;4.40;2.50;;;13.10;68.80;;;;;;4980467;28;20201;-69
2023/07/21 12:01:51;;;;;;;7.30;2.83;;;13.00;69.00;;;;;;4983574;28;20266;-69
2023/07/21 12:04:23;;;;;;;6.53;2.50;;;12.90;68.80;;;;;;4981772;28;20192;-66
2023/07/21 12:06:50;;;;;;;6.57;2.43;;;12.90;68.90;;;;;;4980569;28;20276;-72
2023/07/21 12:09:19;;;;;;;5.73;2.30;;;12.90;69.00;;;;;;4986864;28;20182;-66
2023/07/21 12:11:47;;;;;;;7.30;2.50;;;12.80;69.20;;;;;;4981815;28;20261;-71
2023/07/21 12:14:15;;;;;;;5.30;2.13;;;12.80;69.10;;;;;;4980135;28;20573;-68
2023/07/21 12:16:43;;;;;;;8.40;2.40;;;12.80;69.00;;;;;;4980957;28;20672;-64
2023/07/21 12:19:10;;;;;;;4.27;2.70;;;12.80;69.20;;;;;;4978212;28;20209;-64
2023/07/21 12:21:38;;;;;;;4.73;2.63;;;12.70;69.60;;;;;;4990336;28;20589;-69
2023/07/21 12:24:05;;;;;;;5.27;2.20;;;12.60;69.90;;;;;;4979576;28;20188;-69
2023/07/21 12:26:33;;;;;;;6.20;2.23;;;12.60;70.20;;;;;;4986434;28;20210;-70
2023/07/21 12:29:00;;;;;;;4.93;2.13;;;12.60;70.40;;;;;;4984527;28;20179;-66
2023/07/21 12:31:28;;;;;;;10.67;2.13;;;12.60;70.20;;;;;;4986325;28;20703;-65
2023/07/21 12:33:55;;;;;;;5.80;2.00;;;12.60;70.10;;;;;;4988128;28;20198;-64
2023/07/21 12:36:22;;;;;;;3.57;1.70;;;12.70;70.10;;;;;;4987214;28;20720;-65
2023/07/21 12:38:50;;;;;;;5.80;2.30;;;12.70;69.90;;;;;;4984251;28;20222;-65
2023/07/21 12:41:17;;;;;;;3.90;2.10;;;12.70;69.80;;;;;;4980014;28;20186;-65
2023/07/21 12:43:44;;;;;;;7.43;1.83;;;12.60;70.20;;;;;;4986635;28;20197;-65
2023/07/21 12:46:14;;;;;;;4.97;1.80;;;12.60;70.60;;;;;;4985220;28;20232;-66
2023/07/21 12:48:43;;;;;;;6.67;2.37;;;12.60;71.10;;;;;;4984795;28;20193;-64
2023/07/21 12:51:10;;;;;;;9.00;2.33;;;12.50;71.80;;;;;;4987242;28;20182;-64
2023/07/21 12:53:38;;;;;;;2.53;1.73;;;12.50;72.10;;;;;;4981910;28;20548;-64